MAU42 FIMP-EGKK
Flight info
| Callsign | MAU42 |
|---|---|
| Flight time | N/A |
| Altitude | 34000 |
| Route | NIBIS1 NIBIS UG661 DV UA401 UVBOX/N0500F360 UA401 NN UW325 SIPKI/N0499F350 UT325 EDBIV/N0494F370 UT325 POGBA/N0495F360 UT325 BORKI/N0492F380 UT325 FL UM731 DIR UB730 DJA UM2 AMIRA/N0479F400 UM2 CSO/N0475F390 DCT CIRTA/N0477F400 DCT BUKID DCT GARPU DCT PIGOS DCT BARSO DCT OKTET DCT GIPNO DCT BULOL DCT IDAVO DCT BAGBI DCT SIZZA DCT LAULY DCT BRY DCT CLM DCT KOPOR DCT KESAX DCT KUNAV |
| Aircraft | A359/M-SDE2E3GHIJ1J3J4J5LM1ORWXY/LB1D1 |
Departure
| Time | 2026-05-08 19:09 |
|---|---|
| Airport | Sir Seewoosagur Ramgoolam International Airport (FIMP) |
Arrival
| Time | N/A |
|---|---|
| Airport | London Gatwick Airport (EGKK) |
| Time | Latitude | Longitude | Altitude | Speed | Heading |
|---|---|---|---|---|---|
| 2026-05-08 18:48 | -20.43165 | 57.67851 | 193 ft | 0 kts | 212° |
| 2026-05-08 18:49 | -20.43164 | 57.67851 | 193 ft | 0 kts | 212° |
| 2026-05-08 18:51 | -20.43164 | 57.67852 | 192 ft | 0 kts | 212° |
| 2026-05-08 18:53 | -20.43164 | 57.67851 | 192 ft | 0 kts | 212° |
| 2026-05-08 18:58 | -20.43162 | 57.67853 | 192 ft | 2 kts | 212° |
| 2026-05-08 18:58 | -20.43139 | 57.67868 | 192 ft | 4 kts | 212° |
| 2026-05-08 18:58 | -20.43120 | 57.67881 | 192 ft | 4 kts | 216° |
| 2026-05-08 18:59 | -20.43102 | 57.67900 | 192 ft | 4 kts | 252° |
| 2026-05-08 18:59 | -20.43102 | 57.67926 | 192 ft | 4 kts | 295° |
| 2026-05-08 18:59 | -20.43117 | 57.67950 | 192 ft | 4 kts | 308° |
| 2026-05-08 18:59 | -20.43122 | 57.67957 | 192 ft | 0 kts | 308° |
| 2026-05-08 19:02 | -20.43121 | 57.67955 | 192 ft | 2 kts | 307° |
| 2026-05-08 19:03 | -20.43109 | 57.67938 | 192 ft | 0 kts | 305° |
| 2026-05-08 19:03 | -20.43105 | 57.67932 | 192 ft | 5 kts | 304° |
| 2026-05-08 19:03 | -20.43071 | 57.67870 | 192 ft | 14 kts | 298° |
| 2026-05-08 19:04 | -20.43026 | 57.67777 | 192 ft | 14 kts | 297° |
| 2026-05-08 19:04 | -20.42979 | 57.67684 | 192 ft | 14 kts | 303° |
| 2026-05-08 19:04 | -20.42904 | 57.67621 | 192 ft | 14 kts | 330° |
| 2026-05-08 19:04 | -20.42824 | 57.67565 | 192 ft | 14 kts | 323° |
| 2026-05-08 19:05 | -20.42748 | 57.67505 | 193 ft | 13 kts | 327° |
| 2026-05-08 19:05 | -20.42672 | 57.67470 | 196 ft | 11 kts | 342° |
| 2026-05-08 19:05 | -20.42594 | 57.67434 | 199 ft | 14 kts | 323° |
| 2026-05-08 19:05 | -20.42541 | 57.67350 | 200 ft | 13 kts | 297° |
| 2026-05-08 19:06 | -20.42498 | 57.67261 | 203 ft | 13 kts | 297° |
| 2026-05-08 19:06 | -20.42461 | 57.67185 | 207 ft | 11 kts | 297° |
| 2026-05-08 19:06 | -20.42436 | 57.67117 | 208 ft | 9 kts | 281° |
| 2026-05-08 19:06 | -20.42434 | 57.67053 | 210 ft | 9 kts | 268° |
| 2026-05-08 19:07 | -20.42434 | 57.66992 | 210 ft | 8 kts | 277° |
| 2026-05-08 19:07 | -20.42403 | 57.66930 | 212 ft | 11 kts | 322° |
| 2026-05-08 19:07 | -20.42346 | 57.66936 | 213 ft | 7 kts | 46° |
| 2026-05-08 19:07 | -20.42356 | 57.66978 | 212 ft | 8 kts | 122° |
| 2026-05-08 19:08 | -20.42399 | 57.67059 | 210 ft | 20 kts | 118° |
| 2026-05-08 19:08 | -20.42552 | 57.67376 | 200 ft | 80 kts | 117° |
| 2026-05-08 19:08 | -20.42899 | 57.68095 | 189 ft | 136 kts | 117° |
| 2026-05-08 19:08 | -20.43406 | 57.69150 | 263 ft | 173 kts | 118° |
| 2026-05-08 19:09 | -20.43936 | 57.70237 | 973 ft | 166 kts | 119° |
| 2026-05-08 19:09 | -20.44814 | 57.71094 | 1188 ft | 181 kts | 158° |
| 2026-05-08 19:09 | -20.46087 | 57.71183 | 1311 ft | 193 kts | 196° |
| 2026-05-08 19:09 | -20.47268 | 57.70431 | 1465 ft | 206 kts | 221° |
| 2026-05-08 19:10 | -20.48356 | 57.69348 | 1608 ft | 222 kts | 224° |
| 2026-05-08 19:10 | -20.49511 | 57.68158 | 1747 ft | 240 kts | 224° |
| 2026-05-08 19:10 | -20.50759 | 57.66895 | 1990 ft | 253 kts | 223° |
| 2026-05-08 19:10 | -20.52062 | 57.65595 | 2442 ft | 257 kts | 223° |
| 2026-05-08 19:11 | -20.53382 | 57.64288 | 2943 ft | 260 kts | 223° |
| 2026-05-08 19:11 | -20.54712 | 57.62974 | 3432 ft | 262 kts | 223° |
| 2026-05-08 19:11 | -20.56058 | 57.61648 | 3916 ft | 265 kts | 223° |
| 2026-05-08 19:11 | -20.57417 | 57.60311 | 4394 ft | 267 kts | 223° |
| 2026-05-08 19:12 | -20.58786 | 57.58963 | 4866 ft | 269 kts | 223° |
| 2026-05-08 19:12 | -20.60168 | 57.57603 | 5329 ft | 271 kts | 223° |
| 2026-05-08 19:12 | -20.61555 | 57.56236 | 5783 ft | 273 kts | 223° |
| 2026-05-08 19:12 | -20.62799 | 57.54688 | 6219 ft | 276 kts | 238° |
| 2026-05-08 19:13 | -20.63520 | 57.52796 | 6639 ft | 278 kts | 260° |
| 2026-05-08 19:13 | -20.63436 | 57.50740 | 7038 ft | 281 kts | 287° |
| 2026-05-08 19:13 | -20.62491 | 57.48918 | 7452 ft | 284 kts | 308° |
| 2026-05-08 19:13 | -20.61213 | 57.47304 | 7876 ft | 286 kts | 311° |
| 2026-05-08 19:14 | -20.59893 | 57.45704 | 8300 ft | 288 kts | 310° |
| 2026-05-08 19:14 | -20.58565 | 57.44086 | 8724 ft | 290 kts | 310° |
| 2026-05-08 19:14 | -20.57238 | 57.42456 | 9142 ft | 292 kts | 310° |
| 2026-05-08 19:14 | -20.55900 | 57.40806 | 9556 ft | 295 kts | 310° |
| 2026-05-08 19:15 | -20.54558 | 57.39147 | 9964 ft | 297 kts | 310° |
| 2026-05-08 19:15 | -20.53198 | 57.37464 | 10238 ft | 304 kts | 310° |
| 2026-05-08 19:15 | -20.51793 | 57.35724 | 10405 ft | 315 kts | 310° |
| 2026-05-08 19:15 | -20.50342 | 57.33927 | 10566 ft | 325 kts | 310° |
| 2026-05-08 19:16 | -20.48844 | 57.32073 | 10726 ft | 335 kts | 310° |
| 2026-05-08 19:16 | -20.47300 | 57.30161 | 10886 ft | 345 kts | 310° |
| 2026-05-08 19:16 | -20.45715 | 57.28200 | 11042 ft | 354 kts | 310° |
| 2026-05-08 19:16 | -20.44083 | 57.26182 | 11195 ft | 363 kts | 310° |
| 2026-05-08 19:17 | -20.42415 | 57.24119 | 11347 ft | 371 kts | 310° |
| 2026-05-08 19:17 | -20.40710 | 57.22012 | 11495 ft | 379 kts | 310° |
| 2026-05-08 19:17 | -20.38979 | 57.19873 | 11742 ft | 383 kts | 310° |
| 2026-05-08 19:17 | -20.37231 | 57.17714 | 12034 ft | 386 kts | 310° |
| 2026-05-08 19:18 | -20.35473 | 57.15543 | 12326 ft | 388 kts | 310° |
| 2026-05-08 19:18 | -20.33703 | 57.13359 | 12616 ft | 390 kts | 310° |
| 2026-05-08 19:18 | -20.31925 | 57.11164 | 12896 ft | 393 kts | 310° |
| 2026-05-08 19:18 | -20.30135 | 57.08957 | 13171 ft | 394 kts | 310° |
| 2026-05-08 19:19 | -20.28339 | 57.06742 | 13444 ft | 396 kts | 310° |
| 2026-05-08 19:19 | -20.26554 | 57.04542 | 13704 ft | 398 kts | 310° |
| 2026-05-08 19:19 | -20.24738 | 57.02305 | 13963 ft | 400 kts | 310° |
| 2026-05-08 19:19 | -20.22894 | 57.00034 | 14224 ft | 402 kts | 310° |
| 2026-05-08 19:20 | -20.21059 | 56.97775 | 14476 ft | 403 kts | 310° |
| 2026-05-08 19:20 | -20.20464 | 56.97043 | 14555 ft | 404 kts | 310° |
| 2026-05-08 19:20 | -20.17370 | 56.93236 | 14966 ft | 407 kts | 310° |
| 2026-05-08 19:20 | -20.15513 | 56.90954 | 15209 ft | 409 kts | 310° |
| 2026-05-08 19:21 | -20.13650 | 56.88663 | 15447 ft | 410 kts | 310° |
| 2026-05-08 19:21 | -20.11778 | 56.86364 | 15682 ft | 412 kts | 310° |
| 2026-05-08 19:21 | -20.09894 | 56.84049 | 15916 ft | 414 kts | 310° |
| 2026-05-08 19:21 | -20.08034 | 56.81767 | 16142 ft | 415 kts | 310° |
| 2026-05-08 19:22 | -20.06140 | 56.79441 | 16365 ft | 417 kts | 310° |
| 2026-05-08 19:22 | -20.04235 | 56.77105 | 16583 ft | 419 kts | 310° |
| 2026-05-08 19:22 | -20.02325 | 56.74764 | 16795 ft | 420 kts | 310° |
| 2026-05-08 19:22 | -20.00406 | 56.72412 | 17002 ft | 422 kts | 310° |
| 2026-05-08 19:23 | -19.98481 | 56.70053 | 17206 ft | 423 kts | 310° |
| 2026-05-08 19:23 | -19.96545 | 56.67682 | 17407 ft | 425 kts | 310° |
| 2026-05-08 19:23 | -19.94608 | 56.65311 | 17604 ft | 426 kts | 310° |
| 2026-05-08 19:23 | -19.92659 | 56.62926 | 17799 ft | 428 kts | 310° |
| 2026-05-08 19:24 | -19.90710 | 56.60542 | 17989 ft | 429 kts | 310° |
| 2026-05-08 19:24 | -19.88745 | 56.58139 | 18176 ft | 430 kts | 310° |
| 2026-05-08 19:24 | -19.86779 | 56.55736 | 18353 ft | 432 kts | 310° |
| 2026-05-08 19:24 | -19.84807 | 56.53327 | 18526 ft | 433 kts | 310° |
| 2026-05-08 19:25 | -19.82828 | 56.50910 | 18697 ft | 434 kts | 310° |
| 2026-05-08 19:25 | -19.80837 | 56.48481 | 18866 ft | 436 kts | 310° |
| 2026-05-08 19:25 | -19.79495 | 56.46842 | 18978 ft | 437 kts | 310° |
| 2026-05-08 19:25 | -19.77521 | 56.44435 | 19140 ft | 438 kts | 310° |
| 2026-05-08 19:26 | -19.75523 | 56.41998 | 19296 ft | 439 kts | 310° |
| 2026-05-08 19:26 | -19.73511 | 56.39546 | 19451 ft | 440 kts | 310° |
| 2026-05-08 19:26 | -19.71498 | 56.37095 | 19602 ft | 442 kts | 310° |
| 2026-05-08 19:26 | -19.69480 | 56.34637 | 19752 ft | 443 kts | 310° |
| 2026-05-08 19:27 | -19.67453 | 56.32169 | 19896 ft | 444 kts | 310° |
| 2026-05-08 19:27 | -19.65420 | 56.29696 | 20038 ft | 445 kts | 310° |
| 2026-05-08 19:27 | -19.63387 | 56.27223 | 20177 ft | 446 kts | 310° |
| 2026-05-08 19:27 | -19.61343 | 56.24738 | 20313 ft | 447 kts | 310° |
| 2026-05-08 19:28 | -19.59300 | 56.22255 | 20444 ft | 448 kts | 310° |
| 2026-05-08 19:28 | -19.57245 | 56.19760 | 20574 ft | 449 kts | 310° |
| 2026-05-08 19:28 | -19.55189 | 56.17262 | 20701 ft | 450 kts | 310° |
| 2026-05-08 19:28 | -19.53128 | 56.14761 | 20825 ft | 451 kts | 310° |
| 2026-05-08 19:29 | -19.51058 | 56.12250 | 20947 ft | 452 kts | 311° |
| 2026-05-08 19:29 | -19.48991 | 56.09744 | 21066 ft | 453 kts | 311° |
| 2026-05-08 19:29 | -19.46909 | 56.07220 | 21184 ft | 454 kts | 311° |
| 2026-05-08 19:29 | -19.44830 | 56.04700 | 21296 ft | 455 kts | 311° |
| 2026-05-08 19:30 | -19.42746 | 56.02177 | 21405 ft | 456 kts | 311° |
| 2026-05-08 19:30 | -19.40656 | 55.99647 | 21513 ft | 457 kts | 311° |
| 2026-05-08 19:30 | -19.38564 | 55.97115 | 21619 ft | 458 kts | 311° |
| 2026-05-08 19:30 | -19.36463 | 55.94575 | 21723 ft | 458 kts | 311° |
| 2026-05-08 19:31 | -19.34363 | 55.92035 | 21825 ft | 459 kts | 311° |
| 2026-05-08 19:31 | -19.32255 | 55.89488 | 21926 ft | 460 kts | 311° |
| 2026-05-08 19:31 | -19.30144 | 55.86938 | 22023 ft | 461 kts | 311° |
| 2026-05-08 19:31 | -19.28031 | 55.84386 | 22119 ft | 462 kts | 311° |
| 2026-05-08 19:32 | -19.25913 | 55.81829 | 22214 ft | 462 kts | 311° |
| 2026-05-08 19:32 | -19.23788 | 55.79266 | 22306 ft | 463 kts | 311° |
| 2026-05-08 19:32 | -19.21663 | 55.76702 | 22397 ft | 464 kts | 311° |
| 2026-05-08 19:32 | -19.19533 | 55.74136 | 22485 ft | 465 kts | 311° |
| 2026-05-08 19:33 | -19.17401 | 55.71566 | 22572 ft | 465 kts | 311° |
| 2026-05-08 19:33 | -19.15265 | 55.68994 | 22657 ft | 466 kts | 311° |
| 2026-05-08 19:33 | -19.13123 | 55.66415 | 22740 ft | 467 kts | 311° |
| 2026-05-08 19:33 | -19.10978 | 55.63833 | 22822 ft | 467 kts | 311° |
| 2026-05-08 19:34 | -19.08828 | 55.61248 | 22902 ft | 468 kts | 311° |
| 2026-05-08 19:34 | -19.06678 | 55.58662 | 22982 ft | 469 kts | 311° |
| 2026-05-08 19:34 | -19.04529 | 55.56076 | 23058 ft | 469 kts | 310° |
| 2026-05-08 19:34 | -19.02481 | 55.53385 | 23130 ft | 470 kts | 307° |
| 2026-05-08 19:35 | -19.00541 | 55.50604 | 23206 ft | 470 kts | 305° |
| 2026-05-08 19:35 | -18.98454 | 55.47470 | 23286 ft | 471 kts | 304° |
| 2026-05-08 19:35 | -18.96590 | 55.44626 | 23356 ft | 471 kts | 304° |
| 2026-05-08 19:35 | -18.94719 | 55.41771 | 23425 ft | 472 kts | 304° |
| 2026-05-08 19:36 | -18.92841 | 55.38923 | 23492 ft | 473 kts | 304° |
| 2026-05-08 19:36 | -18.90955 | 55.36079 | 23558 ft | 473 kts | 304° |
| 2026-05-08 19:36 | -18.89058 | 55.33234 | 23624 ft | 474 kts | 305° |
| 2026-05-08 19:36 | -18.87160 | 55.30398 | 23688 ft | 474 kts | 305° |
| 2026-05-08 19:37 | -18.85251 | 55.27550 | 23750 ft | 475 kts | 305° |
| 2026-05-08 19:37 | -18.83316 | 55.24666 | 23812 ft | 475 kts | 305° |
| 2026-05-08 19:37 | -18.81405 | 55.21819 | 23872 ft | 476 kts | 305° |
| 2026-05-08 19:37 | -18.79513 | 55.19002 | 23939 ft | 477 kts | 305° |